createdAt,value
2019-04-05T00:00:47.963Z,6.21
2019-04-05T00:03:53.118Z,6.23
2019-04-05T00:06:58.224Z,6.14
2019-04-05T00:10:03.433Z,6.14
2019-04-05T00:13:09.201Z,6.14
2019-04-05T00:16:14.538Z,6.10
2019-04-05T00:19:19.750Z,6.23
2019-04-05T00:22:24.987Z,6.30
2019-04-05T00:25:30.229Z,6.35
2019-04-05T00:28:35.620Z,6.30
2019-04-05T00:31:40.967Z,6.23
2019-04-05T00:34:46.218Z,6.15
2019-04-05T00:37:51.411Z,6.30
2019-04-05T00:40:56.874Z,6.18
2019-04-05T00:44:02.154Z,6.08
2019-04-05T00:47:07.502Z,6.06
2019-04-05T00:50:13.901Z,6.28
2019-04-05T00:53:19.032Z,6.16
2019-04-05T00:56:24.230Z,6.13
2019-04-05T00:59:29.531Z,6.08
2019-04-05T01:02:35.037Z,6.10
2019-04-05T01:05:40.166Z,6.06
2019-04-05T01:08:45.305Z,6.00
2019-04-05T01:11:50.533Z,6.06
2019-04-05T01:14:56.537Z,6.06
2019-04-05T01:18:01.982Z,6.22
2019-04-05T01:21:09.054Z,6.03
2019-04-05T01:24:15.538Z,6.17
2019-04-05T01:27:22.281Z,6.18
2019-04-05T01:30:27.435Z,6.16
2019-04-05T01:33:32.948Z,6.09
2019-04-05T01:36:38.128Z,6.13
2019-04-05T01:39:43.395Z,6.19
2019-04-05T01:42:48.756Z,6.12
2019-04-05T01:45:55.919Z,6.03
2019-04-05T01:49:03.382Z,6.03
2019-04-05T01:52:08.774Z,5.96
2019-04-05T01:55:14.702Z,5.96
2019-04-05T01:58:20.029Z,6.25
2019-04-05T02:01:25.132Z,6.22
2019-04-05T02:04:30.254Z,6.11
2019-04-05T02:07:35.714Z,6.06
2019-04-05T02:10:41.027Z,6.08
2019-04-05T02:13:46.145Z,6.08
2019-04-05T02:16:51.427Z,6.05
2019-04-05T02:19:56.699Z,6.07
2019-04-05T02:23:01.954Z,6.10
2019-04-05T02:26:07.160Z,6.15
2019-04-05T02:29:12.399Z,6.14
2019-04-05T02:32:17.540Z,6.13
2019-04-05T02:35:22.934Z,6.21
2019-04-05T02:38:28.195Z,6.39
2019-04-05T02:41:34.198Z,5.97
2019-04-05T02:44:41.050Z,5.88
2019-04-05T02:47:51.893Z,5.92
2019-04-05T02:51:00.198Z,5.93
2019-04-05T02:54:06.186Z,5.90
2019-04-05T02:57:12.320Z,6.07
2019-04-05T03:00:17.653Z,6.30
2019-04-05T03:03:23.054Z,6.09
2019-04-05T03:06:28.371Z,6.01
2019-04-05T03:09:34.388Z,5.95
2019-04-05T03:12:40.100Z,6.05
2019-04-05T03:15:45.675Z,5.92
2019-04-05T03:18:57.833Z,5.97
2019-04-05T03:22:06.086Z,5.88
2019-04-05T03:25:11.574Z,5.91
2019-04-05T03:28:17.049Z,5.91
2019-04-05T03:31:25.026Z,5.91
2019-04-05T03:34:29.343Z,6.00
2019-04-05T03:37:35.050Z,5.96
2019-04-05T03:40:40.172Z,5.99
2019-04-05T03:43:46.803Z,6.02
2019-04-05T03:46:57.183Z,5.91
2019-04-05T03:50:01.214Z,5.96
2019-04-05T03:53:07.036Z,6.03
2019-04-05T03:56:12.592Z,5.91
2019-04-05T03:59:18.124Z,5.92
2019-04-05T04:02:23.732Z,5.94
2019-04-05T04:05:29.301Z,5.87
2019-04-05T04:08:34.615Z,5.88
2019-04-05T04:11:39.930Z,5.88
2019-04-05T04:14:45.488Z,5.96
2019-04-05T04:17:50.930Z,5.85
2019-04-05T04:20:59.521Z,5.86
2019-04-05T04:24:05.166Z,5.85
2019-04-05T04:27:10.393Z,5.87
2019-04-05T04:30:16.293Z,5.90
2019-04-05T04:33:21.624Z,5.97
2019-04-05T04:36:27.177Z,5.95
2019-04-05T04:39:33.842Z,6.07
2019-04-05T04:42:39.114Z,5.94
2019-04-05T04:45:44.545Z,5.92
2019-04-05T04:48:49.968Z,5.85
2019-04-05T04:51:55.408Z,5.84
2019-04-05T04:55:00.675Z,5.93
2019-04-05T04:58:06.394Z,5.88
2019-04-05T05:01:11.520Z,5.80
2019-04-05T05:04:17.155Z,5.83
2019-04-05T05:07:22.302Z,5.82
2019-04-05T05:10:27.677Z,5.84
2019-04-05T05:13:34.266Z,5.86
2019-04-05T05:16:39.569Z,5.86
2019-04-05T05:19:45.143Z,5.83
2019-04-05T05:22:50.369Z,5.89
2019-04-05T05:25:55.695Z,5.94
2019-04-05T05:29:01.031Z,6.08
2019-04-05T05:32:09.582Z,5.87
2019-04-05T05:35:13.659Z,5.90
2019-04-05T05:38:19.107Z,5.91
2019-04-05T05:41:24.328Z,5.93
2019-04-05T05:44:30.736Z,5.84
2019-04-05T05:47:37.113Z,5.93
2019-04-05T05:50:42.593Z,5.92
2019-04-05T05:53:48.157Z,5.93
2019-04-05T05:56:53.368Z,6.30
2019-04-05T06:00:00.601Z,6.18
2019-04-05T06:03:06.414Z,6.13
2019-04-05T06:06:11.538Z,6.38
2019-04-05T06:09:16.847Z,6.71
2019-04-05T06:12:22.063Z,6.50
2019-04-05T06:15:27.342Z,6.40
2019-04-05T06:18:32.487Z,6.43
2019-04-05T06:21:37.590Z,6.32
2019-04-05T06:24:42.840Z,6.33
2019-04-05T06:27:48.051Z,6.41
2019-04-05T06:30:53.341Z,6.44
2019-04-05T06:33:59.584Z,6.51
2019-04-05T06:37:04.733Z,6.47
2019-04-05T06:40:09.943Z,6.53
2019-04-05T06:43:15.227Z,6.37
2019-04-05T06:46:20.453Z,6.46
2019-04-05T06:49:25.601Z,6.45
2019-04-05T06:52:30.820Z,6.63
2019-04-05T06:55:36.281Z,6.81
2019-04-05T06:58:41.392Z,6.89
2019-04-05T07:01:46.567Z,6.60
2019-04-05T07:04:51.806Z,6.60
2019-04-05T07:07:57.082Z,6.50
2019-04-05T07:11:02.329Z,6.54
2019-04-05T07:14:07.458Z,6.63
2019-04-05T07:17:12.610Z,6.86
2019-04-05T07:20:18.031Z,6.97
2019-04-05T07:23:23.411Z,6.85
2019-04-05T07:26:28.556Z,6.72
2019-04-05T07:29:33.754Z,6.75
2019-04-05T07:32:38.851Z,6.88
2019-04-05T07:35:44.074Z,7.27
2019-04-05T07:38:49.289Z,7.45
2019-04-05T07:41:54.426Z,7.61
2019-04-05T07:44:59.553Z,7.43
2019-04-05T07:48:04.772Z,7.58
2019-04-05T07:51:09.975Z,7.39
2019-04-05T07:54:15.067Z,7.53
2019-04-05T07:57:20.429Z,7.58
2019-04-05T08:01:00.059Z,7.64
2019-04-05T08:04:05.569Z,7.69
2019-04-05T08:07:11.473Z,7.69
2019-04-05T08:10:16.904Z,7.60
2019-04-05T08:13:24.241Z,7.70
2019-04-05T08:16:30.673Z,7.76
2019-04-05T08:19:35.947Z,8.06
2019-04-05T08:22:41.168Z,8.23
2019-04-05T08:25:46.408Z,8.21
2019-04-05T08:28:51.549Z,8.34
2019-04-05T08:31:56.694Z,8.29
2019-04-05T08:35:01.854Z,8.21
2019-04-05T08:38:07.015Z,8.09
2019-04-05T08:41:12.170Z,7.87
2019-04-05T08:44:17.353Z,8.18
2019-04-05T08:47:22.747Z,7.89
2019-04-05T08:50:28.017Z,7.98
2019-04-05T08:53:33.160Z,8.11
2019-04-05T08:56:38.337Z,8.16
2019-04-05T08:59:43.536Z,8.25
2019-04-05T09:02:49.333Z,8.40
2019-04-05T09:44:25.700Z,9.34
2019-04-05T09:47:30.819Z,9.19
2019-04-05T09:50:36.067Z,9.60
2019-04-05T09:53:41.262Z,9.45
2019-04-05T09:56:46.455Z,9.59
2019-04-05T09:59:51.541Z,9.42
2019-04-05T10:02:56.722Z,9.81
2019-04-05T10:06:03.162Z,9.89
2019-04-05T10:09:09.177Z,10.15
2019-04-05T10:12:14.341Z,10.02
2019-04-05T10:15:21.738Z,9.70
2019-04-05T10:18:26.524Z,9.41
2019-04-05T10:21:31.723Z,9.65
2019-04-05T10:24:36.872Z,10.42
2019-04-05T10:27:42.154Z,9.97
2019-04-05T10:30:47.484Z,10.26
2019-04-05T10:33:52.632Z,10.26
2019-04-05T10:36:57.765Z,9.89
2019-04-05T10:40:02.943Z,9.90
2019-04-05T10:43:08.317Z,10.31
2019-04-05T10:46:13.512Z,10.52
2019-04-05T10:49:18.741Z,10.85
2019-04-05T10:52:23.967Z,10.60
2019-04-05T10:55:29.030Z,10.85
2019-04-05T10:58:34.207Z,11.18
2019-04-05T13:57:40.888Z,10.07
2019-04-05T14:00:48.317Z,10.19
2019-04-05T14:08:10.299Z,10.35
2019-04-05T14:11:13.530Z,10.31
2019-04-05T14:14:18.738Z,10.39
2019-04-05T14:17:24.127Z,10.35
2019-04-05T14:20:29.295Z,10.47
2019-04-05T14:23:34.455Z,10.40
2019-04-05T14:26:39.661Z,10.44
2019-04-05T14:29:47.562Z,10.36
2019-04-05T14:46:12.612Z,10.15
2019-04-05T14:49:17.837Z,10.26
2019-04-05T14:52:25.503Z,10.21
2019-04-05T14:55:30.583Z,10.22
2019-04-05T14:58:35.867Z,10.30
2019-04-05T15:01:41.072Z,10.29
2019-04-05T15:04:46.218Z,10.28
2019-04-05T15:07:52.027Z,10.30
2019-04-05T15:10:58.313Z,10.19
2019-04-05T15:14:03.558Z,10.30
2019-04-05T15:17:08.745Z,10.25
2019-04-05T15:20:14.426Z,10.44
2019-04-05T15:23:19.610Z,10.49
2019-04-05T15:26:24.866Z,10.33
2019-04-05T15:29:30.956Z,10.26
2019-04-05T15:32:37.265Z,10.29
2019-04-05T15:35:42.425Z,10.14
2019-04-05T15:38:47.692Z,10.22
2019-04-05T15:41:52.907Z,10.11
2019-04-05T15:44:58.145Z,10.03
2019-04-05T15:48:03.383Z,9.98
2019-04-05T15:51:08.667Z,10.10
2019-04-05T15:54:13.917Z,10.08
2019-04-05T15:57:19.123Z,10.09
2019-04-05T16:00:40.452Z,10.13
2019-04-05T16:03:45.692Z,10.13
2019-04-05T16:06:50.912Z,10.05
2019-04-05T16:09:56.102Z,9.99
2019-04-05T16:13:01.339Z,9.84
2019-04-05T16:16:06.542Z,9.92
2019-04-05T16:19:11.727Z,9.91
2019-04-05T16:22:16.938Z,9.97
2019-04-05T16:25:22.184Z,10.00
2019-04-05T16:28:27.405Z,9.88
2019-04-05T16:31:32.839Z,9.87
2019-04-05T16:34:38.099Z,9.91
2019-04-05T16:37:43.340Z,9.96
2019-04-05T16:40:48.636Z,9.74
2019-04-05T16:43:53.841Z,9.73
2019-04-05T16:46:59.145Z,9.68
2019-04-05T16:50:04.886Z,9.71
2019-04-05T16:53:10.081Z,9.77
2019-04-05T16:56:15.302Z,9.67
2019-04-05T16:59:20.583Z,9.68
2019-04-05T17:02:25.831Z,9.68
2019-04-05T17:05:32.058Z,9.73
2019-04-05T17:08:37.323Z,9.72
2019-04-05T17:11:42.413Z,9.68
2019-04-05T17:14:48.186Z,9.66
2019-04-05T17:17:53.453Z,9.74
2019-04-05T17:20:58.707Z,9.69
2019-04-05T17:24:03.888Z,9.60
2019-04-05T17:27:09.125Z,9.65
2019-04-05T17:30:14.545Z,9.61
2019-04-05T17:33:19.742Z,9.62
2019-04-05T17:36:25.006Z,9.55
2019-04-05T17:39:30.219Z,9.52
2019-04-05T17:42:35.366Z,9.45
2019-04-05T17:45:40.507Z,9.41
2019-04-05T17:48:45.714Z,9.39
2019-04-05T17:51:50.980Z,9.38
2019-04-05T17:54:56.109Z,9.36
2019-04-05T17:58:02.950Z,9.27
2019-04-05T18:01:08.139Z,9.27
2019-04-05T18:04:13.310Z,9.26
2019-04-05T18:07:18.533Z,9.24
2019-04-05T18:10:24.890Z,9.17
2019-04-05T18:13:30.008Z,9.06
2019-04-05T18:16:35.280Z,8.83
2019-04-05T18:19:40.504Z,8.70
2019-04-05T18:22:45.767Z,8.76
2019-04-05T18:25:51.052Z,8.93
2019-04-05T18:28:56.235Z,8.81
2019-04-05T18:32:01.503Z,8.71
2019-04-05T18:35:07.957Z,8.44
2019-04-05T18:38:13.228Z,8.37
2019-04-05T18:41:18.382Z,8.41
2019-04-05T18:44:23.762Z,8.22
2019-04-05T18:47:28.980Z,8.13
2019-04-05T18:50:34.236Z,8.14
2019-04-05T18:53:39.456Z,8.20
2019-04-05T18:56:44.648Z,8.33
2019-04-05T18:59:49.835Z,8.25
2019-04-05T19:02:55.112Z,8.20
2019-04-05T19:06:00.300Z,8.18
2019-04-05T19:09:07.417Z,8.26
2019-04-05T19:12:14.204Z,8.28
2019-04-05T19:15:19.451Z,8.22
2019-04-05T19:18:24.700Z,8.34
2019-04-05T19:21:29.953Z,8.34
2019-04-05T19:24:35.082Z,8.35
2019-04-05T19:27:40.396Z,8.35
2019-04-05T19:49:30.969Z,8.28
2019-04-05T19:52:36.087Z,8.37
2019-04-05T19:55:41.324Z,8.34
2019-04-05T19:58:46.514Z,8.33
2019-04-05T20:01:51.677Z,8.33
2019-04-05T20:04:56.942Z,8.29
2019-04-05T20:08:02.172Z,8.49
2019-04-05T20:11:07.449Z,8.42
2019-04-05T20:14:12.612Z,8.27
2019-04-05T20:17:17.887Z,8.38
2019-04-05T20:20:23.075Z,8.29
2019-04-05T20:23:28.387Z,8.21
2019-04-05T20:26:33.559Z,8.18
2019-04-05T20:29:38.829Z,8.10
2019-04-05T20:32:44.124Z,7.98
2019-04-05T20:35:49.491Z,7.99
2019-04-05T20:38:54.629Z,8.06
2019-04-05T20:41:59.914Z,7.95
2019-04-05T20:45:06.304Z,7.85
2019-04-05T20:48:11.445Z,7.79
2019-04-05T20:51:16.522Z,7.70
2019-04-05T20:54:24.798Z,7.70
2019-04-05T20:57:28.626Z,7.70
2019-04-05T21:00:33.746Z,7.67
2019-04-05T21:03:38.933Z,7.69
2019-04-05T21:06:44.284Z,7.67
2019-04-05T21:09:49.768Z,7.61
2019-04-05T21:12:54.972Z,7.54
2019-04-05T21:16:00.193Z,7.48
2019-04-05T21:19:05.417Z,7.52
2019-04-05T21:22:10.588Z,7.48
2019-04-05T21:25:15.772Z,7.50
2019-04-05T21:28:20.964Z,7.47
2019-04-05T21:31:26.249Z,7.41
2019-04-05T21:34:31.460Z,7.43
2019-04-05T21:37:36.639Z,7.38
2019-04-05T21:40:41.773Z,7.31
2019-04-05T21:43:47.122Z,7.43
2019-04-05T21:46:52.376Z,7.45
2019-04-05T21:49:57.631Z,7.40
2019-04-05T21:53:02.792Z,7.37
2019-04-05T21:56:11.868Z,7.39
2019-04-05T21:59:18.661Z,7.43
2019-04-05T22:02:23.831Z,7.51
2019-04-05T22:05:29.053Z,7.59
2019-04-05T22:08:34.311Z,7.60
2019-04-05T22:11:39.487Z,7.54
2019-04-05T22:14:44.659Z,7.53
2019-04-05T22:17:49.786Z,7.55
2019-04-05T22:20:55.021Z,7.63
2019-04-05T22:24:00.225Z,7.64
2019-04-05T22:27:05.428Z,7.61
2019-04-05T22:30:11.347Z,7.64
2019-04-05T22:33:16.563Z,7.66
2019-04-05T22:36:21.744Z,7.63
2019-04-05T22:39:26.905Z,7.67
2019-04-05T22:42:32.051Z,7.77
2019-04-05T22:45:37.355Z,7.74
2019-04-05T22:48:42.523Z,7.79
2019-04-05T22:51:47.672Z,7.81
2019-04-05T22:54:52.822Z,7.82
2019-04-05T22:57:58.054Z,7.86
2019-04-05T23:01:03.205Z,7.87
2019-04-05T23:04:08.523Z,7.73
2019-04-05T23:07:13.694Z,7.83
2019-04-05T23:10:18.796Z,7.82
2019-04-05T23:13:23.981Z,7.75
2019-04-05T23:16:30.150Z,7.75
2019-04-05T23:19:35.377Z,7.87
2019-04-05T23:22:40.569Z,7.83
2019-04-05T23:25:45.785Z,7.81
2019-04-05T23:28:50.930Z,7.81
2019-04-05T23:31:56.228Z,7.83
2019-04-05T23:35:01.470Z,7.83
2019-04-05T23:38:06.589Z,7.83
2019-04-05T23:41:11.732Z,7.85
2019-04-05T23:44:16.881Z,7.85
2019-04-05T23:47:22.222Z,7.86
2019-04-05T23:50:27.463Z,7.88
2019-04-05T23:53:32.589Z,7.86
2019-04-05T23:56:37.821Z,7.91
2019-04-05T23:59:43.087Z,7.83
